Glenford, NY (12433)

10:01 PM EDT on August 27, 2015 (GMT -0400)
Clover St. | | Change Station
CLOSE
Current Station
Personal Weather Station
Location: West Hurley, NY
Elevation: 627 ft
Nearby Weather Stations

Elev 627 ft 42.00 °N, 74.10 °W | Updated 1 minute ago

Mostly Cloudy
Mostly Cloudy
62.2 °F
Feels Like 62.2 °F
N
0.0
Wind Variable Wind from SSE

Today
High -- | Low -- °F
--% Chance of Precip.
Yesterday
High -- | Low -- °F
Precip. -- in
6:16 AM 7:38 PM
Waxing Gibbous, 96% visible
Pressure 30.09 in
Visibility 10.0 miles
Clouds Clear
Dew Point 56 °F
Humidity 81%
Rainfall 0.00 in
Snow Depth Not available.
UV 0 out of 12
Pollen 9.40 out of 12
Air Quality Not available.
Flu Activity Not available.
METAR KPOU 280153Z 01003KT 10SM CLR 17/13 A3011 RMK AO2 SLP190 T01720133
Pressure 30.09 in
Visibility 10.0 miles
Clouds Clear
Dew Point 56 °F
Humidity 81%
Rainfall 0.00 in
Snow Depth Not available.
UV 0 out of 12
Pollen 9.40 out of 12
Air Quality Not available.
Flu Activity Not available.
METAR KPOU 280153Z 01003KT 10SM CLR 17/13 A3011 RMK AO2 SLP190 T01720133

10-Day Weather Forecast

×

Almanac

Astronomy

Aug. 27, 2015 Rise Set
Actual Time
Civil Twilight
Nautical Twilight
Astronomical Twilight
Moon
Length of Visible Light
Length of Day
Tomorrow will be .
, % of the Moon is Illuminated

Today's Extremes

State Highs State Lows

Community

WunderPhotos

Upload Photos

1,850,301 photos uploaded!

WunderBlogs® & News

Nearby

Air Quality

  Air Quality AQ Index Pollutant
Not available.

Snow Depth

Station Depth Elevation

Earthquake Activity

City Distance Mag. Time & Date
Minimum magnitude displayed is 2.5.

Coastal Water Temperatures

Place Temperature

Stations

Nearby Weather Stations

Station Location Temp. Windchill Dew Point Humidity Wind Precip. Elev Updated Type